Time;durP1;ratioP1;P1;durP2;ratioP2;P2;SDS_P1;SDS_P2;PMS_P1;PMS_P2;Temp;Humidity;BMP_temperature;BMP_pressure;BME280_temperature;BME280_humidity;BME280_pressure;Samples;Min_cycle;Max_cycle;Signal;HPM_P1;HPM_P2
2022/06/05 00:02:37;;;;;;;3.20;2.97;;;19.30;58.40;;;;;;6164524;23;20150;-87
2022/06/05 00:05:27;;;;;;;4.00;3.60;;;19.20;58.40;;;;;;6216051;23;20141;-87
2022/06/05 00:08:18;;;;;;;3.70;3.40;;;19.20;58.50;;;;;;6167901;23;20512;-87
2022/06/05 00:10:51;;;;;;;3.72;3.42;;;19.20;58.50;;;;;;6173295;23;20130;-87
2022/06/05 00:13:27;;;;;;;3.95;3.55;;;19.20;58.50;;;;;;6141438;23;20154;-87
2022/06/05 00:15:53;;;;;;;3.75;3.45;;;19.20;58.40;;;;;;6165511;23;20146;-87
2022/06/05 00:18:18;;;;;;;4.07;3.67;;;19.20;58.50;;;;;;6164910;23;20193;-87
2022/06/05 00:20:44;;;;;;;3.83;3.53;;;19.20;58.40;;;;;;6140002;23;20577;-87
2022/06/05 00:23:10;;;;;;;3.75;3.45;;;19.20;58.50;;;;;;6164648;23;20138;-87
2022/06/05 00:26:01;;;;;;;3.90;3.60;;;19.30;58.50;;;;;;6140024;23;20237;-87
2022/06/05 00:28:39;;;;;;;3.42;3.13;;;19.30;58.50;;;;;;6164543;23;20581;-87
2022/06/05 00:31:17;;;;;;;3.50;3.20;;;19.20;58.40;;;;;;6165822;23;20161;-87
2022/06/05 00:33:43;;;;;;;3.17;2.88;;;19.30;58.50;;;;;;6165930;23;20580;-87
2022/06/05 00:36:29;;;;;;;4.20;3.80;;;19.20;58.50;;;;;;6189395;23;20193;-87
2022/06/05 00:39:09;;;;;;;4.60;3.72;;;19.20;58.50;;;;;;6192419;23;20137;-86
2022/06/05 00:41:44;;;;;;;3.63;3.33;;;19.20;58.50;;;;;;6165621;23;20156;-87
2022/06/05 00:44:11;;;;;;;3.63;3.25;;;19.20;58.60;;;;;;6164928;23;20509;-87
2022/06/05 00:46:37;;;;;;;3.88;3.53;;;19.20;58.60;;;;;;6189320;23;20133;-87
2022/06/05 00:49:03;;;;;;;4.18;3.78;;;19.20;58.60;;;;;;6165170;23;20161;-87
2022/06/05 00:51:29;;;;;;;4.00;3.67;;;19.20;58.60;;;;;;6140018;23;20236;-87
2022/06/05 00:53:59;;;;;;;3.90;3.50;;;19.20;58.70;;;;;;6140723;23;20237;-87
2022/06/05 00:56:24;;;;;;;3.58;3.28;;;19.20;58.70;;;;;;6140371;23;20181;-86
2022/06/05 00:58:51;;;;;;;4.20;3.80;;;19.20;58.60;;;;;;6164348;23;20146;-86
2022/06/05 01:01:17;;;;;;;3.72;3.30;;;19.20;58.70;;;;;;6140411;23;20146;-87
2022/06/05 01:03:43;;;;;;;3.70;3.40;;;19.20;58.70;;;;;;6139655;23;20337;-87
2022/06/05 01:06:08;;;;;;;3.83;3.50;;;19.20;58.70;;;;;;6164575;23;20166;-87
2022/06/05 01:08:34;;;;;;;3.75;3.40;;;19.20;58.70;;;;;;6189852;23;20459;-87
2022/06/05 01:11:10;;;;;;;3.90;3.50;;;19.10;58.70;;;;;;6189328;23;20138;-87
2022/06/05 01:13:48;;;;;;;4.15;3.75;;;19.20;58.80;;;;;;6165445;23;20173;-86
2022/06/05 01:16:41;;;;;;;3.88;3.58;;;19.20;58.70;;;;;;6165753;23;20146;-87
2022/06/05 01:19:41;;;;;;;4.00;3.70;;;19.20;58.80;;;;;;6168327;23;20594;-87
2022/06/05 01:22:21;;;;;;;3.55;3.25;;;19.20;58.80;;;;;;6189451;23;20150;-87
2022/06/05 01:24:59;;;;;;;3.90;3.50;;;19.10;58.80;;;;;;6166724;23;20184;-87
2022/06/05 01:27:27;;;;;;;3.92;3.55;;;19.10;58.70;;;;;;6189836;23;20208;-87
2022/06/05 01:30:00;;;;;;;3.67;3.38;;;19.20;58.90;;;;;;6164429;23;20152;-86
2022/06/05 01:32:52;;;;;;;4.20;3.78;;;19.10;58.80;;;;;;6164653;23;20143;-87
2022/06/05 01:35:24;;;;;;;4.20;3.80;;;19.10;58.80;;;;;;6166426;23;20150;-87
2022/06/05 01:38:03;;;;;;;3.72;3.42;;;19.10;58.80;;;;;;6164954;23;20147;-87
2022/06/05 01:40:32;;;;;;;3.70;3.40;;;19.10;58.90;;;;;;6166685;23;20153;-87
2022/06/05 01:43:07;;;;;;;3.67;3.38;;;19.10;58.90;;;;;;6164669;23;20541;-87
2022/06/05 01:45:38;;;;;;;4.60;4.10;;;19.10;58.90;;;;;;6189342;23;20174;-87
2022/06/05 01:48:04;;;;;;;3.97;3.58;;;19.10;58.90;;;;;;6164778;23;20682;-87
2022/06/05 01:50:40;;;;;;;3.97;3.58;;;19.20;58.90;;;;;;6164967;23;20249;-87
2022/06/05 01:53:18;;;;;;;4.10;3.70;;;19.10;58.90;;;;;;6167908;23;20149;-87
2022/06/05 01:55:57;;;;;;;3.85;3.50;;;19.10;59.00;;;;;;6167972;23;20145;-87
2022/06/05 01:58:29;;;;;;;3.92;3.60;;;19.10;58.90;;;;;;6166102;23;20178;-87
2022/06/05 02:00:56;;;;;;;3.90;3.50;;;19.10;58.90;;;;;;6191871;23;20130;-87
2022/06/05 02:03:30;;;;;;;4.00;3.60;;;19.10;58.90;;;;;;6174126;23;20190;-87
2022/06/05 02:05:58;;;;;;;4.05;3.67;;;19.10;58.90;;;;;;6172181;23;20581;-87
2022/06/05 02:08:31;;;;;;;4.05;3.67;;;19.10;58.90;;;;;;6196112;23;20487;-87
2022/06/05 02:11:02;;;;;;;4.03;3.63;;;19.00;58.90;;;;;;6220610;23;20140;-87
2022/06/05 02:13:27;;;;;;;3.90;3.50;;;19.10;59.00;;;;;;6195993;23;20175;-87
2022/06/05 02:15:53;;;;;;;3.83;3.42;;;19.10;59.00;;;;;;6195538;23;20215;-87
2022/06/05 02:18:19;;;;;;;3.60;3.30;;;19.00;59.00;;;;;;6170907;23;20160;-87
2022/06/05 02:20:45;;;;;;;3.83;3.53;;;19.10;59.10;;;;;;6196129;23;20133;-87
2022/06/05 02:23:13;;;;;;;4.20;3.80;;;19.00;59.00;;;;;;6195762;23;20138;-87
2022/06/05 02:25:40;;;;;;;3.90;3.50;;;19.00;59.10;;;;;;6171195;23;20585;-87
2022/06/05 02:28:07;;;;;;;3.75;3.40;;;19.10;59.10;;;;;;6195592;23;20188;-87
2022/06/05 02:30:43;;;;;;;3.75;3.45;;;19.10;59.10;;;;;;6171091;23;20159;-87
2022/06/05 02:33:31;;;;;;;4.28;3.88;;;19.00;59.00;;;;;;6196735;23;20483;-86
2022/06/05 02:36:07;;;;;;;4.15;3.75;;;19.00;59.00;;;;;;6174716;23;20237;-87
2022/06/05 02:39:00;;;;;;;4.00;3.60;;;19.00;59.10;;;;;;6196933;23;20134;-86
2022/06/05 02:41:41;;;;;;;3.70;3.40;;;19.00;59.10;;;;;;6220662;23;20129;-87
2022/06/05 02:47:28;;;;;;;4.07;3.67;;;19.10;59.10;;;;;;6201533;23;20137;-87
2022/06/05 02:50:13;;;;;;;3.85;3.45;;;19.10;59.10;;;;;;6220167;23;20150;-87
2022/06/05 02:52:39;;;;;;;4.07;3.67;;;19.10;59.10;;;;;;6220652;23;20133;-87
2022/06/05 02:55:09;;;;;;;3.78;3.47;;;19.10;59.10;;;;;;6170797;23;20153;-87
2022/06/05 02:57:35;;;;;;;4.00;3.60;;;19.00;59.10;;;;;;6194846;23;20173;-88
2022/06/05 03:00:03;;;;;;;4.03;3.63;;;19.00;59.10;;;;;;6170697;23;20160;-88
2022/06/05 03:05:14;;;;;;;3.75;3.45;;;19.10;59.00;;;;;;6224902;23;20141;-87
2022/06/05 03:07:40;;;;;;;4.35;3.95;;;19.10;59.00;;;;;;6170660;23;20173;-87
2022/06/05 03:10:06;;;;;;;4.03;3.63;;;19.10;59.00;;;;;;6170433;23;20573;-87
2022/06/05 03:12:32;;;;;;;4.05;3.65;;;19.10;59.10;;;;;;6170293;23;20173;-87
2022/06/05 03:15:01;;;;;;;4.00;3.60;;;19.10;59.20;;;;;;6169914;23;20156;-87
2022/06/05 03:17:28;;;;;;;4.13;3.70;;;19.10;59.10;;;;;;6195849;23;20145;-87
2022/06/05 03:19:54;;;;;;;4.10;3.70;;;19.10;59.10;;;;;;6195099;23;20200;-87
2022/06/05 03:22:20;;;;;;;3.88;3.53;;;19.10;59.10;;;;;;6170408;23;20185;-87
2022/06/05 03:24:46;;;;;;;4.28;3.88;;;19.10;59.10;;;;;;6195004;23;20573;-87
2022/06/05 03:27:11;;;;;;;3.97;3.58;;;19.10;59.00;;;;;;6194820;23;20158;-87
2022/06/05 03:29:37;;;;;;;4.13;3.72;;;19.10;59.10;;;;;;6195391;23;20228;-87
2022/06/05 03:32:03;;;;;;;4.18;3.78;;;19.00;59.10;;;;;;6194855;23;20138;-87
2022/06/05 03:34:29;;;;;;;3.90;3.50;;;19.00;59.10;;;;;;6195353;23;20138;-88
2022/06/05 03:36:54;;;;;;;4.10;3.70;;;19.00;59.10;;;;;;6195283;23;20141;-88
2022/06/05 03:39:20;;;;;;;4.10;3.70;;;19.10;59.10;;;;;;6220008;23;20180;-87
2022/06/05 03:41:46;;;;;;;4.10;3.70;;;19.10;59.10;;;;;;6170034;23;20539;-87
2022/06/05 03:44:12;;;;;;;3.80;3.42;;;19.10;59.10;;;;;;6195296;23;20129;-87
2022/06/05 03:46:39;;;;;;;4.30;3.90;;;19.10;59.20;;;;;;6194833;23;20141;-87
2022/06/05 03:49:06;;;;;;;4.15;3.75;;;19.10;59.10;;;;;;6195305;23;20248;-87
2022/06/05 03:51:32;;;;;;;4.00;3.70;;;19.10;59.10;;;;;;6169946;23;20138;-87
2022/06/05 03:53:57;;;;;;;4.35;3.95;;;19.10;59.10;;;;;;6170139;23;20133;-88
2022/06/05 03:56:25;;;;;;;4.10;3.70;;;19.10;59.10;;;;;;6170168;23;20141;-87
2022/06/05 03:58:51;;;;;;;4.50;4.10;;;19.00;59.10;;;;;;6169878;23;20201;-87
2022/06/05 04:01:17;;;;;;;4.05;3.65;;;19.10;59.10;;;;;;6170669;23;20149;-87
2022/06/05 04:03:43;;;;;;;4.22;3.83;;;19.10;59.20;;;;;;6219479;23;20197;-86
2022/06/05 04:06:10;;;;;;;4.45;4.05;;;19.10;59.10;;;;;;6170335;23;20188;-87
2022/06/05 04:08:36;;;;;;;4.32;3.60;;;19.10;59.10;;;;;;6170521;23;20177;-87
2022/06/05 04:11:05;;;;;;;4.03;3.72;;;19.10;59.70;;;;;;6169747;23;20225;-87
2022/06/05 04:13:31;;;;;;;4.00;3.60;;;19.10;59.00;;;;;;6170758;23;20138;-87
2022/06/05 04:15:57;;;;;;;4.13;3.72;;;19.10;58.90;;;;;;6170004;23;20145;-88
2022/06/05 04:18:23;;;;;;;3.80;3.50;;;19.10;59.00;;;;;;6194396;23;20481;-87
2022/06/05 04:20:48;;;;;;;4.07;3.70;;;19.10;59.00;;;;;;6195576;23;20181;-88
2022/06/05 04:23:14;;;;;;;4.20;3.80;;;19.10;59.60;;;;;;6219368;23;20179;-88
2022/06/05 04:25:42;;;;;;;4.20;3.80;;;19.20;59.00;;;;;;6194905;23;20145;-87
2022/06/05 04:28:08;;;;;;;3.90;3.58;;;19.10;58.90;;;;;;6219632;23;20161;-88
2022/06/05 04:30:37;;;;;;;3.90;3.50;;;19.20;58.90;;;;;;6194510;23;20141;-87
2022/06/05 04:33:03;;;;;;;4.03;3.63;;;19.20;58.90;;;;;;6194548;23;20480;-87
2022/06/05 04:35:29;;;;;;;3.88;3.47;;;19.10;58.90;;;;;;6194947;23;20138;-88
2022/06/05 04:37:54;;;;;;;4.43;4.03;;;19.30;58.90;;;;;;6169743;23;20156;-88
2022/06/05 04:40:20;;;;;;;4.40;4.00;;;19.20;58.80;;;;;;6194543;23;20473;-87
2022/06/05 04:42:46;;;;;;;4.10;3.70;;;19.20;58.70;;;;;;6220226;23;20152;-87
2022/06/05 04:45:11;;;;;;;3.88;3.47;;;19.20;58.60;;;;;;6169456;23;20152;-88
2022/06/05 04:47:39;;;;;;;4.35;3.95;;;19.30;58.60;;;;;;6194239;23;20177;-87
2022/06/05 04:50:07;;;;;;;4.35;3.95;;;19.30;58.60;;;;;;6170376;23;20141;-88
2022/06/05 04:52:34;;;;;;;4.22;3.83;;;19.20;58.60;;;;;;6169568;23;20176;-88
2022/06/05 04:55:00;;;;;;;3.92;3.53;;;19.30;58.60;;;;;;6194365;23;20188;-87
2022/06/05 04:57:26;;;;;;;4.05;3.70;;;19.30;58.60;;;;;;6195188;23;20511;-88
2022/06/05 04:59:51;;;;;;;3.70;3.38;;;19.30;58.50;;;;;;6194421;23;20140;-88
2022/06/05 05:02:18;;;;;;;4.20;3.80;;;19.30;58.50;;;;;;6218990;23;20176;-87
2022/06/05 05:04:47;;;;;;;3.88;3.55;;;19.30;58.50;;;;;;6164919;23;20185;-88
2022/06/05 05:07:14;;;;;;;3.90;3.60;;;19.30;58.40;;;;;;6164844;23;20176;-88
2022/06/05 05:09:40;;;;;;;3.85;3.47;;;19.40;58.50;;;;;;6140583;23;20146;-88
2022/06/05 05:12:06;;;;;;;3.70;3.40;;;19.30;59.10;;;;;;6164554;23;20134;-88
2022/06/05 05:14:32;;;;;;;4.13;3.72;;;19.30;58.40;;;;;;6164294;23;20149;-87
2022/06/05 05:16:58;;;;;;;4.20;3.80;;;19.30;58.30;;;;;;6139307;23;20146;-87
2022/06/05 05:19:24;;;;;;;3.60;3.30;;;19.30;58.30;;;;;;6164655;23;20139;-87
2022/06/05 05:21:49;;;;;;;3.97;3.42;;;19.40;58.30;;;;;;6140457;23;20138;-87
2022/06/05 05:24:15;;;;;;;4.10;3.70;;;19.40;58.30;;;;;;6163928;23;20198;-88
2022/06/05 05:26:41;;;;;;;3.72;3.42;;;19.40;58.30;;;;;;6141115;23;20157;-87
2022/06/05 05:29:06;;;;;;;4.00;3.60;;;19.40;58.30;;;;;;6166365;23;20173;-87
2022/06/05 05:31:35;;;;;;;4.00;3.60;;;19.40;58.30;;;;;;6141390;23;20158;-87
2022/06/05 05:34:01;;;;;;;4.30;3.90;;;19.40;58.30;;;;;;6166713;23;20572;-88
2022/06/05 05:36:28;;;;;;;3.88;3.50;;;19.40;58.30;;;;;;6165927;23;20169;-87
2022/06/05 05:44:15;;;;;;;4.30;3.60;;;19.40;58.30;;;;;;6172363;23;20153;-87
2022/06/05 05:46:41;;;;;;;4.13;3.72;;;19.40;58.30;;;;;;6141782;23;20605;-88
2022/06/05 05:49:07;;;;;;;3.55;3.25;;;19.40;58.30;;;;;;6165987;23;20170;-87
2022/06/05 05:51:33;;;;;;;3.40;3.10;;;19.40;58.20;;;;;;6165831;23;20145;-87
2022/06/05 05:53:59;;;;;;;3.95;3.55;;;19.40;58.30;;;;;;6190612;23;20205;-88
2022/06/05 05:56:26;;;;;;;4.47;4.07;;;19.50;58.20;;;;;;6218140;23;20130;-88
2022/06/05 05:58:51;;;;;;;4.05;3.65;;;19.40;58.10;;;;;;6168809;23;20165;-87
2022/06/05 06:01:17;;;;;;;3.65;3.35;;;19.40;58.20;;;;;;6144016;23;20142;-88
2022/06/05 06:03:43;;;;;;;4.20;3.80;;;19.40;58.20;;;;;;6185056;23;20200;-87
2022/06/05 06:06:09;;;;;;;3.80;3.40;;;19.40;58.10;;;;;;6172333;23;20159;-88
2022/06/05 06:08:35;;;;;;;3.92;3.53;;;19.50;58.20;;;;;;6197579;23;20195;-87
2022/06/05 06:11:00;;;;;;;3.90;3.50;;;19.50;58.10;;;;;;6172265;23;20153;-87
2022/06/05 06:13:26;;;;;;;3.65;3.33;;;19.50;58.00;;;;;;6196442;23;20134;-85
2022/06/05 06:15:52;;;;;;;3.67;3.38;;;19.40;58.00;;;;;;6222868;23;20136;-87
2022/06/05 06:18:18;;;;;;;3.88;3.47;;;19.50;57.90;;;;;;6248137;23;20149;-88
2022/06/05 06:20:45;;;;;;;3.95;3.55;;;19.50;58.00;;;;;;6197082;23;20157;-88
2022/06/05 06:23:10;;;;;;;3.80;3.40;;;19.50;58.20;;;;;;6249650;23;20284;-87
2022/06/05 06:25:37;;;;;;;4.22;3.83;;;19.50;58.10;;;;;;6247814;23;20157;-87
2022/06/05 06:28:04;;;;;;;3.45;3.15;;;19.50;58.00;;;;;;6172797;23;20539;-87
2022/06/05 06:30:32;;;;;;;3.78;3.47;;;19.50;58.00;;;;;;6172103;23;20308;-87
2022/06/05 06:32:58;;;;;;;3.83;3.40;;;19.60;57.70;;;;;;6172461;23;20224;-87
2022/06/05 06:35:23;;;;;;;3.70;3.40;;;19.60;57.60;;;;;;6196630;23;20472;-87
2022/06/05 06:37:49;;;;;;;3.58;3.28;;;19.70;57.60;;;;;;6196655;23;20512;-87
2022/06/05 06:40:15;;;;;;;3.67;3.38;;;19.60;57.60;;;;;;6222524;23;20141;-88
2022/06/05 06:42:41;;;;;;;3.95;3.60;;;19.70;57.60;;;;;;6221785;23;20137;-87
2022/06/05 06:45:08;;;;;;;3.90;3.60;;;19.70;57.50;;;;;;6196865;23;20173;-88
2022/06/05 06:47:34;;;;;;;3.80;3.50;;;19.70;57.40;;;;;;6196791;23;20169;-88
2022/06/05 06:49:59;;;;;;;3.60;3.30;;;19.70;57.60;;;;;;6196465;23;20148;-87
2022/06/05 06:52:25;;;;;;;3.67;3.25;;;19.70;57.50;;;;;;6196523;23;20439;-87
2022/06/05 06:54:51;;;;;;;3.60;3.30;;;19.70;57.40;;;;;;6197323;23;20145;-87
2022/06/05 06:57:17;;;;;;;3.70;3.40;;;19.70;57.50;;;;;;6249119;23;20126;-87
2022/06/05 06:59:42;;;;;;;3.40;3.10;;;19.70;57.50;;;;;;6172575;23;20233;-88
2022/06/05 07:02:08;;;;;;;3.72;3.25;;;19.70;57.40;;;;;;6220176;23;20492;-87
2022/06/05 07:04:34;;;;;;;4.13;3.72;;;19.80;57.40;;;;;;6192094;23;20193;-87
2022/06/05 07:07:00;;;;;;;3.80;3.40;;;19.70;57.50;;;;;;6220258;23;20140;-87
2022/06/05 07:09:27;;;;;;;3.75;3.45;;;19.60;57.70;;;;;;6170242;23;20588;-87
2022/06/05 07:11:52;;;;;;;3.60;3.30;;;19.60;57.80;;;;;;6220127;23;20130;-87
2022/06/05 07:14:18;;;;;;;3.58;3.28;;;19.60;57.80;;;;;;6195087;23;20141;-88
2022/06/05 07:16:44;;;;;;;3.92;3.53;;;19.60;58.00;;;;;;6196244;23;20145;-88
2022/06/05 07:19:10;;;;;;;4.13;3.72;;;19.60;58.00;;;;;;6170266;23;20231;-87
2022/06/05 07:21:36;;;;;;;3.47;3.17;;;19.50;58.00;;;;;;6195127;23;20141;-88
2022/06/05 07:24:01;;;;;;;3.75;3.35;;;19.50;58.10;;;;;;6170206;23;20580;-87
2022/06/05 07:26:30;;;;;;;3.58;3.28;;;19.50;58.00;;;;;;6170543;23;20173;-87
2022/06/05 07:28:56;;;;;;;3.95;3.60;;;19.60;58.00;;;;;;6170938;23;20185;-87
2022/06/05 07:31:22;;;;;;;4.07;3.63;;;19.50;58.00;;;;;;6194945;23;20166;-87
2022/06/05 07:33:48;;;;;;;3.85;3.42;;;19.50;58.00;;;;;;6170320;23;20146;-87
2022/06/05 07:36:16;;;;;;;3.83;3.28;;;19.60;58.00;;;;;;6194717;23;20599;-88
2022/06/05 07:38:42;;;;;;;4.00;3.60;;;19.50;57.90;;;;;;6171048;23;20228;-87
2022/06/05 07:41:18;;;;;;;3.70;3.20;;;19.60;58.00;;;;;;6194931;23;20164;-87
2022/06/05 07:43:44;;;;;;;3.75;3.13;;;19.70;57.90;;;;;;6219832;23;20584;-88
2022/06/05 07:46:10;;;;;;;3.63;3.30;;;19.60;57.80;;;;;;6220049;23;20164;-88
2022/06/05 07:48:36;;;;;;;3.53;3.22;;;19.70;57.70;;;;;;6194368;23;20621;-88
2022/06/05 07:56:22;;;;;;;4.03;3.40;;;19.60;57.70;;;;;;6223379;23;20137;-87
2022/06/05 07:58:48;;;;;;;3.80;3.40;;;19.70;57.70;;;;;;6246488;23;20133;-87
2022/06/05 08:01:13;;;;;;;4.07;3.67;;;19.70;57.80;;;;;;6194843;23;20155;-87
2022/06/05 08:03:39;;;;;;;3.80;3.45;;;19.60;57.80;;;;;;6219546;23;20197;-88
2022/06/05 08:06:09;;;;;;;3.75;3.20;;;19.70;57.90;;;;;;6219734;23;20145;-88
2022/06/05 08:08:35;;;;;;;3.67;3.25;;;19.70;57.90;;;;;;6219808;23;20544;-88
2022/06/05 08:11:03;;;;;;;3.50;3.20;;;19.70;57.70;;;;;;6170111;23;20234;-88
2022/06/05 08:13:28;;;;;;;3.40;3.10;;;19.70;58.30;;;;;;6170293;23;20513;-87
2022/06/05 08:15:54;;;;;;;3.20;2.90;;;19.70;57.70;;;;;;6171485;23;20149;-87
2022/06/05 08:18:20;;;;;;;3.58;3.28;;;19.70;57.70;;;;;;6195241;23;20554;-88
2022/06/05 08:20:46;;;;;;;3.72;3.22;;;19.70;57.80;;;;;;6194896;23;20156;-88
2022/06/05 08:23:12;;;;;;;3.70;3.40;;;19.70;57.80;;;;;;6169254;23;20187;-88
2022/06/05 08:25:37;;;;;;;3.60;3.30;;;19.70;57.80;;;;;;6219486;23;20183;-88
2022/06/05 08:28:03;;;;;;;3.58;3.28;;;19.70;57.70;;;;;;6195094;23;20181;-87
2022/06/05 08:30:30;;;;;;;3.72;3.40;;;19.70;57.60;;;;;;6169755;23;20150;-87
2022/06/05 08:32:56;;;;;;;3.80;3.42;;;19.70;57.60;;;;;;6219128;23;20232;-88
2022/06/05 08:35:21;;;;;;;3.40;3.10;;;19.70;57.60;;;;;;6219494;23;20180;-88
2022/06/05 08:43:35;;;;;;;3.53;3.10;;;19.70;57.60;;;;;;6200682;23;20137;-88
2022/06/05 08:46:16;;;;;;;3.75;3.45;;;19.70;57.60;;;;;;6176405;23;20162;-87
2022/06/05 08:48:49;;;;;;;3.53;3.22;;;19.80;57.60;;;;;;6170634;23;20196;-87
2022/06/05 08:51:39;;;;;;;3.30;3.00;;;19.70;57.60;;;;;;6195321;23;20145;-87
2022/06/05 08:54:11;;;;;;;4.07;3.70;;;19.80;57.70;;;;;;6219957;23;20149;-88
2022/06/05 08:56:40;;;;;;;3.40;3.10;;;19.80;57.70;;;;;;6171286;23;20574;-88
2022/06/05 08:59:14;;;;;;;3.50;3.20;;;19.70;57.60;;;;;;6170352;23;20157;-87
2022/06/05 09:01:50;;;;;;;3.45;3.15;;;19.70;57.70;;;;;;6196606;23;20465;-88
2022/06/05 09:04:24;;;;;;;4.05;3.05;;;19.70;57.80;;;;;;6198637;23;20535;-87
2022/06/05 09:06:54;;;;;;;3.60;3.30;;;19.80;57.80;;;;;;6197988;23;20134;-87
2022/06/05 09:09:23;;;;;;;3.28;2.97;;;19.70;57.60;;;;;;6173292;23;20183;-88
2022/06/05 09:12:09;;;;;;;3.45;3.15;;;19.80;57.80;;;;;;6198611;23;20553;-88
2022/06/05 09:14:43;;;;;;;3.67;3.38;;;19.80;57.60;;;;;;6175992;23;20168;-88
2022/06/05 09:17:12;;;;;;;3.10;2.80;;;19.80;57.60;;;;;;6173610;23;20176;-88
2022/06/05 09:19:38;;;;;;;3.30;3.00;;;19.80;58.20;;;;;;6172250;23;20565;-88
2022/06/05 09:22:22;;;;;;;3.58;3.15;;;19.80;57.60;;;;;;6196652;23;20179;-88
2022/06/05 09:25:10;;;;;;;3.83;3.50;;;19.80;57.70;;;;;;6199211;23;20145;-87
2022/06/05 09:27:43;;;;;;;3.80;3.40;;;19.80;57.60;;;;;;6195791;23;20169;-88
2022/06/05 09:30:33;;;;;;;3.40;3.10;;;19.80;57.60;;;;;;6221615;23;20595;-88
2022/06/05 09:33:30;;;;;;;3.42;3.13;;;19.80;57.60;;;;;;6221184;23;20215;-87
2022/06/05 09:35:59;;;;;;;3.55;3.25;;;19.80;57.80;;;;;;6196112;23;20141;-87
2022/06/05 09:38:31;;;;;;;3.30;3.00;;;19.80;57.80;;;;;;6196038;23;20138;-88
2022/06/05 09:41:25;;;;;;;3.42;3.13;;;19.80;57.80;;;;;;6195984;23;20662;-88
2022/06/05 09:44:08;;;;;;;3.35;3.05;;;19.80;57.60;;;;;;6173806;23;20544;-87
2022/06/05 09:47:04;;;;;;;3.45;3.15;;;19.90;57.80;;;;;;6172793;23;20149;-87
2022/06/05 09:49:38;;;;;;;3.58;3.28;;;19.80;57.60;;;;;;6221125;23;20177;-88
2022/06/05 09:52:22;;;;;;;3.50;3.15;;;19.80;57.60;;;;;;6172300;23;20142;-87
2022/06/05 09:55:00;;;;;;;3.35;2.90;;;19.90;57.60;;;;;;6195895;23;20156;-88
2022/06/05 10:00:43;;;;;;;3.50;3.20;;;19.90;57.70;;;;;;6229408;23;20153;-87
2022/06/05 10:03:15;;;;;;;3.35;3.05;;;19.90;57.60;;;;;;6163388;23;20765;-87
2022/06/05 10:05:45;;;;;;;3.42;3.13;;;19.90;57.70;;;;;;6167112;23;20138;-87
2022/06/05 10:08:18;;;;;;;3.40;3.10;;;19.90;57.60;;;;;;6168083;23;20170;-88
2022/06/05 10:10:45;;;;;;;3.53;3.22;;;19.90;57.60;;;;;;6191878;23;20138;-88
2022/06/05 10:13:20;;;;;;;3.58;3.28;;;19.80;57.60;;;;;;6142077;23;20157;-87
2022/06/05 10:15:52;;;;;;;3.28;2.97;;;19.90;58.30;;;;;;6166333;23;20129;-87
2022/06/05 10:18:27;;;;;;;3.35;3.05;;;19.90;57.60;;;;;;6141967;23;20165;-87
2022/06/05 10:20:57;;;;;;;3.58;3.28;;;19.90;57.70;;;;;;6137328;23;20224;-88
2022/06/05 10:23:45;;;;;;;3.40;3.10;;;19.80;57.70;;;;;;6160421;23;20233;-87
2022/06/05 10:26:26;;;;;;;3.50;3.20;;;19.90;57.70;;;;;;6174923;23;20596;-88
2022/06/05 10:28:52;;;;;;;3.58;3.28;;;19.90;57.70;;;;;;6157393;23;20220;-87
2022/06/05 10:31:27;;;;;;;3.45;3.15;;;19.80;57.60;;;;;;6165214;23;20217;-88
2022/06/05 10:34:05;;;;;;;3.35;3.03;;;19.90;57.80;;;;;;6155085;23;20212;-88
2022/06/05 10:36:52;;;;;;;3.17;2.88;;;19.80;57.80;;;;;;6141509;23;20220;-87
2022/06/05 10:39:28;;;;;;;2.97;2.72;;;19.90;57.80;;;;;;6165609;23;20299;-87
2022/06/05 10:42:20;;;;;;;3.40;3.10;;;19.90;57.80;;;;;;6113520;23;20474;-87
2022/06/05 10:44:59;;;;;;;3.40;3.10;;;19.90;57.70;;;;;;6166249;23;20515;-87
2022/06/05 10:47:53;;;;;;;;;;;;;;;;;;;;;
2022/06/05 10:50:23;;;;;;;4.35;3.20;;;19.90;57.80;;;;;;6165421;23;20316;-87
2022/06/05 10:53:13;;;;;;;4.05;2.90;;;19.90;57.90;;;;;;6189914;23;20174;-88
2022/06/05 10:55:49;;;;;;;3.45;3.15;;;19.80;58.00;;;;;;6165192;23;20146;-87
2022/06/05 10:58:48;;;;;;;3.30;3.00;;;19.70;58.00;;;;;;6142642;23;20208;-87
2022/06/05 11:01:41;;;;;;;3.67;3.33;;;19.60;58.00;;;;;;6162222;23;20493;-88
2022/06/05 11:04:37;;;;;;;3.40;3.10;;;19.70;57.90;;;;;;6211545;23;20196;-87
2022/06/05 11:07:28;;;;;;;3.53;3.22;;;19.80;57.90;;;;;;6201772;23;20273;-87
2022/06/05 11:10:02;;;;;;;3.78;3.25;;;19.80;57.90;;;;;;6220401;23;20488;-87
2022/06/05 11:15:39;;;;;;;3.40;3.10;;;19.80;57.70;;;;;;6201442;23;20473;-87
2022/06/05 11:18:15;;;;;;;3.10;2.80;;;19.90;57.60;;;;;;6198957;23;20157;-87
2022/06/05 11:20:43;;;;;;;3.30;3.00;;;19.90;57.60;;;;;;6196513;23;20133;-88
2022/06/05 11:23:13;;;;;;;4.80;3.08;;;19.90;57.50;;;;;;6194937;23;20216;-87
2022/06/05 11:25:52;;;;;;;4.43;3.00;;;20.00;57.50;;;;;;6195343;23;20134;-88
2022/06/05 11:28:49;;;;;;;3.50;3.20;;;20.00;57.40;;;;;;6220286;23;20588;-88
2022/06/05 11:31:51;;;;;;;3.13;2.83;;;20.00;57.50;;;;;;6225422;23;20149;-88
2022/06/05 11:34:50;;;;;;;5.07;3.22;;;20.00;57.50;;;;;;6224658;23;20148;-87
2022/06/05 11:37:41;;;;;;;3.50;3.03;;;20.00;57.50;;;;;;6246778;23;20152;-88
2022/06/05 11:40:32;;;;;;;3.58;3.28;;;20.00;57.50;;;;;;6203861;23;20130;-87
2022/06/05 11:43:15;;;;;;;3.30;2.90;;;20.00;57.50;;;;;;6195271;23;20156;-87
2022/06/05 11:45:51;;;;;;;3.35;3.00;;;20.00;57.60;;;;;;6172402;23;20149;-87
2022/06/05 11:48:28;;;;;;;3.53;3.22;;;19.90;57.60;;;;;;6195945;23;20243;-88
2022/06/05 11:51:20;;;;;;;3.42;3.13;;;20.00;57.70;;;;;;6195343;23;20472;-87
2022/06/05 11:54:26;;;;;;;3.17;2.88;;;20.00;57.60;;;;;;6172456;23;20592;-87
2022/06/05 11:57:14;;;;;;;3.35;3.05;;;20.00;57.60;;;;;;6198660;23;20153;-87
2022/06/05 12:00:19;;;;;;;3.20;2.90;;;19.90;57.70;;;;;;6219908;23;20152;-87
2022/06/05 12:02:54;;;;;;;3.35;3.05;;;20.00;57.80;;;;;;6182226;23;20251;-87
2022/06/05 12:05:46;;;;;;;3.30;3.00;;;19.90;57.70;;;;;;6195829;23;20156;-88
2022/06/05 12:08:15;;;;;;;4.38;3.30;;;19.90;57.70;;;;;;6198335;23;20219;-87
2022/06/05 12:10:53;;;;;;;3.22;2.92;;;20.00;57.70;;;;;;6195376;23;20550;-87
2022/06/05 12:13:52;;;;;;;2.92;2.72;;;20.00;57.80;;;;;;6220833;23;20133;-87
2022/06/05 12:16:36;;;;;;;3.00;2.70;;;20.00;57.60;;;;;;6246359;23;20198;-87
2022/06/05 12:19:15;;;;;;;3.22;2.92;;;20.00;57.80;;;;;;6195145;23;20588;-87
2022/06/05 12:21:55;;;;;;;3.30;3.00;;;20.00;57.80;;;;;;6194438;23;20568;-87
2022/06/05 12:24:30;;;;;;;3.47;3.17;;;20.00;57.70;;;;;;6195217;23;20250;-87
2022/06/05 12:27:00;;;;;;;3.15;2.70;;;20.10;57.50;;;;;;6171677;23;20231;-87
2022/06/05 12:29:34;;;;;;;2.88;2.67;;;20.10;57.50;;;;;;6170085;23;20173;-87
2022/06/05 12:32:04;;;;;;;3.10;2.80;;;20.10;57.40;;;;;;6170430;23;20227;-87
2022/06/05 12:34:41;;;;;;;2.72;2.50;;;20.10;57.50;;;;;;6170514;23;20142;-87
2022/06/05 12:37:40;;;;;;;3.17;2.88;;;20.10;57.50;;;;;;6195084;23;20132;-87
2022/06/05 12:40:15;;;;;;;3.53;3.10;;;20.10;57.50;;;;;;6198609;23;20229;-87
2022/06/05 12:42:49;;;;;;;3.33;3.03;;;20.10;57.50;;;;;;6194885;23;20148;-88
2022/06/05 12:45:29;;;;;;;3.53;3.20;;;20.10;57.70;;;;;;6195741;23;20172;-87
2022/06/05 12:48:14;;;;;;;3.40;3.08;;;20.00;57.70;;;;;;6196599;23;20177;-88
2022/06/05 12:50:59;;;;;;;3.20;2.90;;;20.00;57.60;;;;;;6219897;23;20133;-88
2022/06/05 12:53:47;;;;;;;4.03;3.30;;;20.00;57.60;;;;;;6218946;23;20133;-88
2022/06/05 12:56:30;;;;;;;3.40;3.10;;;20.00;57.70;;;;;;6174575;23;20529;-88
2022/06/05 12:59:14;;;;;;;3.97;2.97;;;20.00;57.80;;;;;;6219908;23;20564;-87
2022/06/05 13:01:47;;;;;;;3.55;3.10;;;20.00;57.80;;;;;;6222388;23;20569;-87
2022/06/05 13:04:20;;;;;;;3.17;2.88;;;19.90;57.80;;;;;;6169757;23;20295;-87
2022/06/05 13:07:09;;;;;;;3.70;2.85;;;19.90;57.80;;;;;;6196110;23;20460;-87
2022/06/05 13:09:40;;;;;;;3.40;3.10;;;19.90;58.00;;;;;;6221420;23;20162;-87
2022/06/05 13:12:27;;;;;;;3.63;3.33;;;19.90;57.90;;;;;;6171500;23;20137;-88
2022/06/05 13:14:57;;;;;;;3.38;3.08;;;20.00;57.80;;;;;;6227121;23;20137;-87
2022/06/05 13:17:40;;;;;;;3.08;2.80;;;20.00;57.80;;;;;;6172337;23;20627;-87
2022/06/05 13:20:45;;;;;;;3.63;3.33;;;20.00;57.60;;;;;;6196183;23;20138;-87
2022/06/05 13:23:20;;;;;;;3.00;2.70;;;20.00;57.60;;;;;;6245893;23;20207;-87
2022/06/05 13:26:23;;;;;;;2.95;2.75;;;20.00;57.50;;;;;;6196689;23;20164;-88
2022/06/05 13:28:55;;;;;;;3.40;3.10;;;20.10;57.50;;;;;;6194791;23;20262;-87
2022/06/05 13:31:57;;;;;;;3.20;2.90;;;20.10;57.50;;;;;;6172193;23;20229;-88
2022/06/05 13:34:30;;;;;;;3.22;2.92;;;20.00;57.40;;;;;;6220224;23;20153;-88
2022/06/05 13:37:03;;;;;;;2.72;2.53;;;20.10;57.30;;;;;;6172642;23;20149;-87
2022/06/05 13:39:37;;;;;;;3.08;2.78;;;20.10;57.10;;;;;;6196933;23;20217;-87
2022/06/05 13:42:16;;;;;;;3.17;2.85;;;20.10;57.30;;;;;;6171977;23;20148;-87
2022/06/05 13:44:43;;;;;;;3.30;3.00;;;20.10;57.30;;;;;;6197339;23;20157;-87
2022/06/05 13:47:40;;;;;;;2.88;2.67;;;20.10;57.20;;;;;;6170363;23;20150;-87